sensor_id;sensor_type;location;lat;lon;timestamp;temperature;humidity
26186;DHT22;20067;48.764;9.176;2023-02-02T00:01:17;6.20;91.30
26186;DHT22;20067;48.764;9.176;2023-02-02T00:03:42;6.20;91.30
26186;DHT22;20067;48.764;9.176;2023-02-02T00:06:08;6.20;91.30
26186;DHT22;20067;48.764;9.176;2023-02-02T00:08:34;6.30;91.30
26186;DHT22;20067;48.764;9.176;2023-02-02T00:11:03;6.30;91.30
26186;DHT22;20067;48.764;9.176;2023-02-02T00:13:28;6.30;91.30
26186;DHT22;20067;48.764;9.176;2023-02-02T00:15:54;6.30;91.30
26186;DHT22;20067;48.764;9.176;2023-02-02T00:18:19;6.30;91.30
26186;DHT22;20067;48.764;9.176;2023-02-02T00:20:45;6.40;91.30
26186;DHT22;20067;48.764;9.176;2023-02-02T00:23:14;6.40;91.30
26186;DHT22;20067;48.764;9.176;2023-02-02T00:25:39;6.40;91.30
26186;DHT22;20067;48.764;9.176;2023-02-02T00:28:05;6.40;91.30
26186;DHT22;20067;48.764;9.176;2023-02-02T00:30:30;6.40;91.30
26186;DHT22;20067;48.764;9.176;2023-02-02T00:32:56;6.40;91.30
26186;DHT22;20067;48.764;9.176;2023-02-02T00:35:22;6.40;91.30
26186;DHT22;20067;48.764;9.176;2023-02-02T00:37:47;6.40;91.30
26186;DHT22;20067;48.764;9.176;2023-02-02T00:40:13;6.50;91.30
26186;DHT22;20067;48.764;9.176;2023-02-02T00:42:38;6.50;91.30
26186;DHT22;20067;48.764;9.176;2023-02-02T00:45:04;6.50;91.30
26186;DHT22;20067;48.764;9.176;2023-02-02T00:47:47;6.50;91.30
26186;DHT22;20067;48.764;9.176;2023-02-02T00:50:16;6.60;91.10
26186;DHT22;20067;48.764;9.176;2023-02-02T00:52:43;6.60;91.10
26186;DHT22;20067;48.764;9.176;2023-02-02T00:55:11;6.60;91.30
26186;DHT22;20067;48.764;9.176;2023-02-02T00:57:37;6.60;91.30
26186;DHT22;20067;48.764;9.176;2023-02-02T01:00:05;6.60;91.20
26186;DHT22;20067;48.764;9.176;2023-02-02T01:02:32;6.70;91.00
26186;DHT22;20067;48.764;9.176;2023-02-02T01:04:58;6.60;91.10
26186;DHT22;20067;48.764;9.176;2023-02-02T01:07:23;6.70;90.80
26186;DHT22;20067;48.764;9.176;2023-02-02T01:09:49;6.70;90.80
26186;DHT22;20067;48.764;9.176;2023-02-02T01:12:14;6.70;90.80
26186;DHT22;20067;48.764;9.176;2023-02-02T01:14:40;6.70;90.70
26186;DHT22;20067;48.764;9.176;2023-02-02T01:17:05;6.70;90.80
26186;DHT22;20067;48.764;9.176;2023-02-02T01:19:31;6.80;90.90
26186;DHT22;20067;48.764;9.176;2023-02-02T01:21:57;6.70;90.80
26186;DHT22;20067;48.764;9.176;2023-02-02T01:24:22;6.80;90.80
26186;DHT22;20067;48.764;9.176;2023-02-02T01:26:48;6.80;90.90
26186;DHT22;20067;48.764;9.176;2023-02-02T01:29:14;6.80;90.90
26186;DHT22;20067;48.764;9.176;2023-02-02T01:31:40;6.80;91.20
26186;DHT22;20067;48.764;9.176;2023-02-02T01:34:06;6.80;91.30
26186;DHT22;20067;48.764;9.176;2023-02-02T01:36:32;6.80;91.30
26186;DHT22;20067;48.764;9.176;2023-02-02T01:38:57;6.80;91.30
26186;DHT22;20067;48.764;9.176;2023-02-02T01:41:24;6.70;91.30
26186;DHT22;20067;48.764;9.176;2023-02-02T01:43:58;6.70;91.30
26186;DHT22;20067;48.764;9.176;2023-02-02T01:46:32;6.60;91.30
26186;DHT22;20067;48.764;9.176;2023-02-02T01:49:04;6.60;91.30
26186;DHT22;20067;48.764;9.176;2023-02-02T01:51:50;6.60;91.30
26186;DHT22;20067;48.764;9.176;2023-02-02T01:54:31;6.60;91.30
26186;DHT22;20067;48.764;9.176;2023-02-02T01:57:03;6.50;91.30
26186;DHT22;20067;48.764;9.176;2023-02-02T01:59:30;6.50;91.30
26186;DHT22;20067;48.764;9.176;2023-02-02T02:01:57;6.50;91.30
26186;DHT22;20067;48.764;9.176;2023-02-02T02:04:24;6.50;91.30
26186;DHT22;20067;48.764;9.176;2023-02-02T02:06:51;6.60;91.30
26186;DHT22;20067;48.764;9.176;2023-02-02T02:09:18;6.60;91.30
26186;DHT22;20067;48.764;9.176;2023-02-02T02:11:44;6.60;91.30
26186;DHT22;20067;48.764;9.176;2023-02-02T02:14:10;6.60;91.30
26186;DHT22;20067;48.764;9.176;2023-02-02T02:34:11;6.60;91.30
26186;DHT22;20067;48.764;9.176;2023-02-02T02:36:55;6.60;91.30
26186;DHT22;20067;48.764;9.176;2023-02-02T02:39:33;6.50;91.30
26186;DHT22;20067;48.764;9.176;2023-02-02T02:42:14;6.50;91.30
26186;DHT22;20067;48.764;9.176;2023-02-02T02:44:42;6.50;91.30
26186;DHT22;20067;48.764;9.176;2023-02-02T02:47:08;6.60;91.30
26186;DHT22;20067;48.764;9.176;2023-02-02T02:49:44;6.60;91.30
26186;DHT22;20067;48.764;9.176;2023-02-02T02:52:10;6.60;91.30
26186;DHT22;20067;48.764;9.176;2023-02-02T02:54:45;6.60;91.30
26186;DHT22;20067;48.764;9.176;2023-02-02T02:57:21;6.60;91.30
26186;DHT22;20067;48.764;9.176;2023-02-02T03:02:56;6.70;91.30
26186;DHT22;20067;48.764;9.176;2023-02-02T03:05:42;6.70;91.30
26186;DHT22;20067;48.764;9.176;2023-02-02T03:08:31;6.70;91.30
26186;DHT22;20067;48.764;9.176;2023-02-02T03:10:59;6.70;91.30
26186;DHT22;20067;48.764;9.176;2023-02-02T03:13:27;6.70;91.30
26186;DHT22;20067;48.764;9.176;2023-02-02T03:15:53;6.70;91.30
26186;DHT22;20067;48.764;9.176;2023-02-02T03:18:21;6.70;91.30
26186;DHT22;20067;48.764;9.176;2023-02-02T03:20:48;6.70;91.30
26186;DHT22;20067;48.764;9.176;2023-02-02T03:23:14;6.70;91.30
26186;DHT22;20067;48.764;9.176;2023-02-02T03:25:40;6.70;91.30
26186;DHT22;20067;48.764;9.176;2023-02-02T03:28:06;6.70;91.30
26186;DHT22;20067;48.764;9.176;2023-02-02T03:30:32;6.80;91.30
26186;DHT22;20067;48.764;9.176;2023-02-02T03:32:58;6.70;91.30
26186;DHT22;20067;48.764;9.176;2023-02-02T03:35:24;6.80;91.30
26186;DHT22;20067;48.764;9.176;2023-02-02T03:37:51;6.70;91.30
26186;DHT22;20067;48.764;9.176;2023-02-02T03:40:16;6.70;91.30
26186;DHT22;20067;48.764;9.176;2023-02-02T03:42:42;6.70;91.30
26186;DHT22;20067;48.764;9.176;2023-02-02T03:45:08;6.70;91.30
26186;DHT22;20067;48.764;9.176;2023-02-02T03:47:34;6.70;91.30
26186;DHT22;20067;48.764;9.176;2023-02-02T03:50:00;6.70;91.30
26186;DHT22;20067;48.764;9.176;2023-02-02T03:52:25;6.70;91.30
26186;DHT22;20067;48.764;9.176;2023-02-02T03:54:51;6.70;91.30
26186;DHT22;20067;48.764;9.176;2023-02-02T03:57:17;6.70;91.30
26186;DHT22;20067;48.764;9.176;2023-02-02T03:59:43;6.70;91.30
26186;DHT22;20067;48.764;9.176;2023-02-02T04:02:08;6.70;91.30
26186;DHT22;20067;48.764;9.176;2023-02-02T04:04:34;6.80;91.30
26186;DHT22;20067;48.764;9.176;2023-02-02T04:06:59;6.80;91.30
26186;DHT22;20067;48.764;9.176;2023-02-02T04:09:26;6.80;91.30
26186;DHT22;20067;48.764;9.176;2023-02-02T04:11:52;6.80;91.30
26186;DHT22;20067;48.764;9.176;2023-02-02T04:14:18;6.80;91.30
26186;DHT22;20067;48.764;9.176;2023-02-02T04:16:43;6.80;91.30
26186;DHT22;20067;48.764;9.176;2023-02-02T04:19:09;6.80;91.30
26186;DHT22;20067;48.764;9.176;2023-02-02T04:21:37;6.80;91.30
26186;DHT22;20067;48.764;9.176;2023-02-02T04:24:03;6.80;91.30
26186;DHT22;20067;48.764;9.176;2023-02-02T04:26:29;6.70;91.30
26186;DHT22;20067;48.764;9.176;2023-02-02T04:28:54;6.80;91.30
26186;DHT22;20067;48.764;9.176;2023-02-02T04:31:20;6.80;91.30
26186;DHT22;20067;48.764;9.176;2023-02-02T04:33:46;6.80;91.30
26186;DHT22;20067;48.764;9.176;2023-02-02T04:36:11;6.80;91.30
26186;DHT22;20067;48.764;9.176;2023-02-02T04:38:37;6.80;91.30
26186;DHT22;20067;48.764;9.176;2023-02-02T04:41:07;6.90;91.30
26186;DHT22;20067;48.764;9.176;2023-02-02T04:43:34;6.90;91.30
26186;DHT22;20067;48.764;9.176;2023-02-02T04:46:00;6.90;91.30
26186;DHT22;20067;48.764;9.176;2023-02-02T04:48:26;6.90;91.30
26186;DHT22;20067;48.764;9.176;2023-02-02T04:51:00;6.90;91.30
26186;DHT22;20067;48.764;9.176;2023-02-02T04:53:27;6.80;91.30
26186;DHT22;20067;48.764;9.176;2023-02-02T04:55:53;6.80;91.30
26186;DHT22;20067;48.764;9.176;2023-02-02T04:58:19;6.90;91.30
26186;DHT22;20067;48.764;9.176;2023-02-02T05:00:44;6.90;91.30
26186;DHT22;20067;48.764;9.176;2023-02-02T05:03:10;6.90;91.30
26186;DHT22;20067;48.764;9.176;2023-02-02T05:05:35;6.90;91.30
26186;DHT22;20067;48.764;9.176;2023-02-02T05:08:01;6.90;91.30
26186;DHT22;20067;48.764;9.176;2023-02-02T05:10:27;6.90;91.30
26186;DHT22;20067;48.764;9.176;2023-02-02T05:12:53;6.90;91.30
26186;DHT22;20067;48.764;9.176;2023-02-02T05:15:19;6.80;91.30
26186;DHT22;20067;48.764;9.176;2023-02-02T05:17:46;6.90;91.30
26186;DHT22;20067;48.764;9.176;2023-02-02T05:20:12;6.90;91.30
26186;DHT22;20067;48.764;9.176;2023-02-02T05:22:38;6.90;91.30
26186;DHT22;20067;48.764;9.176;2023-02-02T05:25:05;6.90;91.30
26186;DHT22;20067;48.764;9.176;2023-02-02T05:27:31;7.00;91.30
26186;DHT22;20067;48.764;9.176;2023-02-02T05:29:57;7.00;91.30
26186;DHT22;20067;48.764;9.176;2023-02-02T05:32:22;6.90;91.30
26186;DHT22;20067;48.764;9.176;2023-02-02T05:34:48;6.90;91.30
26186;DHT22;20067;48.764;9.176;2023-02-02T05:37:14;6.90;91.30
26186;DHT22;20067;48.764;9.176;2023-02-02T05:39:39;7.00;91.30
26186;DHT22;20067;48.764;9.176;2023-02-02T05:42:05;7.00;91.30
26186;DHT22;20067;48.764;9.176;2023-02-02T05:44:30;7.00;91.30
26186;DHT22;20067;48.764;9.176;2023-02-02T05:46:56;6.90;91.30
26186;DHT22;20067;48.764;9.176;2023-02-02T05:49:22;6.90;91.30
26186;DHT22;20067;48.764;9.176;2023-02-02T05:51:50;6.90;91.30
26186;DHT22;20067;48.764;9.176;2023-02-02T05:54:16;6.90;91.30
26186;DHT22;20067;48.764;9.176;2023-02-02T05:56:49;6.90;91.30
26186;DHT22;20067;48.764;9.176;2023-02-02T05:59:17;6.90;91.30
26186;DHT22;20067;48.764;9.176;2023-02-02T06:01:44;6.90;91.30
26186;DHT22;20067;48.764;9.176;2023-02-02T06:04:10;7.00;91.30
26186;DHT22;20067;48.764;9.176;2023-02-02T06:06:35;7.00;91.30
26186;DHT22;20067;48.764;9.176;2023-02-02T06:09:03;7.00;91.30
26186;DHT22;20067;48.764;9.176;2023-02-02T06:11:28;6.90;91.30
26186;DHT22;20067;48.764;9.176;2023-02-02T06:13:54;6.90;91.30
26186;DHT22;20067;48.764;9.176;2023-02-02T06:16:19;6.90;91.30
26186;DHT22;20067;48.764;9.176;2023-02-02T06:18:45;6.90;91.30
26186;DHT22;20067;48.764;9.176;2023-02-02T06:21:11;6.90;91.30
26186;DHT22;20067;48.764;9.176;2023-02-02T06:23:37;6.90;91.30
26186;DHT22;20067;48.764;9.176;2023-02-02T06:26:03;7.00;91.30
26186;DHT22;20067;48.764;9.176;2023-02-02T06:28:31;6.90;91.30
26186;DHT22;20067;48.764;9.176;2023-02-02T06:31:03;6.90;91.30
26186;DHT22;20067;48.764;9.176;2023-02-02T06:33:29;7.00;91.30
26186;DHT22;20067;48.764;9.176;2023-02-02T06:35:58;7.00;91.30
26186;DHT22;20067;48.764;9.176;2023-02-02T06:38:24;6.90;91.30
26186;DHT22;20067;48.764;9.176;2023-02-02T06:40:50;7.00;91.30
26186;DHT22;20067;48.764;9.176;2023-02-02T06:43:15;7.00;91.30
26186;DHT22;20067;48.764;9.176;2023-02-02T06:45:41;7.10;91.30
26186;DHT22;20067;48.764;9.176;2023-02-02T06:48:07;7.10;91.30
26186;DHT22;20067;48.764;9.176;2023-02-02T06:50:36;7.00;91.30
26186;DHT22;20067;48.764;9.176;2023-02-02T06:53:02;7.00;91.30
26186;DHT22;20067;48.764;9.176;2023-02-02T06:55:27;7.00;91.30
26186;DHT22;20067;48.764;9.176;2023-02-02T06:57:57;7.10;91.30
26186;DHT22;20067;48.764;9.176;2023-02-02T07:00:23;7.10;91.30
26186;DHT22;20067;48.764;9.176;2023-02-02T07:02:49;7.10;91.30
26186;DHT22;20067;48.764;9.176;2023-02-02T07:05:14;7.10;91.30
26186;DHT22;20067;48.764;9.176;2023-02-02T07:07:40;7.20;91.30
26186;DHT22;20067;48.764;9.176;2023-02-02T07:10:06;7.20;91.30
26186;DHT22;20067;48.764;9.176;2023-02-02T07:12:32;7.20;91.30
26186;DHT22;20067;48.764;9.176;2023-02-02T07:14:57;7.20;91.30
26186;DHT22;20067;48.764;9.176;2023-02-02T07:17:24;7.20;91.30
26186;DHT22;20067;48.764;9.176;2023-02-02T07:19:49;7.20;91.30
26186;DHT22;20067;48.764;9.176;2023-02-02T07:22:15;7.20;91.30
26186;DHT22;20067;48.764;9.176;2023-02-02T07:24:41;7.20;91.30
26186;DHT22;20067;48.764;9.176;2023-02-02T07:27:06;7.20;91.30
26186;DHT22;20067;48.764;9.176;2023-02-02T07:29:32;7.10;91.30
26186;DHT22;20067;48.764;9.176;2023-02-02T07:31:57;7.10;91.30
26186;DHT22;20067;48.764;9.176;2023-02-02T07:34:23;7.10;91.30
26186;DHT22;20067;48.764;9.176;2023-02-02T07:36:49;7.10;91.30
26186;DHT22;20067;48.764;9.176;2023-02-02T07:39:15;7.10;91.30
26186;DHT22;20067;48.764;9.176;2023-02-02T07:41:40;7.20;91.30
26186;DHT22;20067;48.764;9.176;2023-02-02T07:44:12;7.20;91.30
26186;DHT22;20067;48.764;9.176;2023-02-02T07:46:43;7.20;91.30
26186;DHT22;20067;48.764;9.176;2023-02-02T07:49:14;7.20;91.30
26186;DHT22;20067;48.764;9.176;2023-02-02T07:51:41;7.10;91.30
26186;DHT22;20067;48.764;9.176;2023-02-02T07:54:07;7.10;91.30
26186;DHT22;20067;48.764;9.176;2023-02-02T07:56:33;7.10;91.30
26186;DHT22;20067;48.764;9.176;2023-02-02T07:58:59;7.10;91.30
26186;DHT22;20067;48.764;9.176;2023-02-02T08:01:26;7.10;91.30
26186;DHT22;20067;48.764;9.176;2023-02-02T08:03:53;7.20;91.30
26186;DHT22;20067;48.764;9.176;2023-02-02T08:06:26;7.20;91.30
26186;DHT22;20067;48.764;9.176;2023-02-02T08:08:57;7.20;91.30
26186;DHT22;20067;48.764;9.176;2023-02-02T08:11:24;7.30;91.30
26186;DHT22;20067;48.764;9.176;2023-02-02T08:13:52;7.30;91.30
26186;DHT22;20067;48.764;9.176;2023-02-02T08:16:19;7.30;91.30
26186;DHT22;20067;48.764;9.176;2023-02-02T08:18:45;7.30;91.30
26186;DHT22;20067;48.764;9.176;2023-02-02T08:21:11;7.30;91.30
26186;DHT22;20067;48.764;9.176;2023-02-02T08:23:39;7.30;91.30
26186;DHT22;20067;48.764;9.176;2023-02-02T08:26:13;7.30;91.30
26186;DHT22;20067;48.764;9.176;2023-02-02T08:28:41;7.40;91.30
26186;DHT22;20067;48.764;9.176;2023-02-02T08:31:12;7.40;91.30
26186;DHT22;20067;48.764;9.176;2023-02-02T08:33:38;7.40;91.30
26186;DHT22;20067;48.764;9.176;2023-02-02T08:36:10;7.50;91.30
26186;DHT22;20067;48.764;9.176;2023-02-02T08:38:36;7.60;91.30
26186;DHT22;20067;48.764;9.176;2023-02-02T08:41:07;7.50;91.30
26186;DHT22;20067;48.764;9.176;2023-02-02T08:43:33;7.60;91.30
26186;DHT22;20067;48.764;9.176;2023-02-02T08:45:59;7.60;91.30
26186;DHT22;20067;48.764;9.176;2023-02-02T08:48:24;7.60;91.30
26186;DHT22;20067;48.764;9.176;2023-02-02T08:50:54;7.70;91.30
26186;DHT22;20067;48.764;9.176;2023-02-02T08:53:20;7.70;91.30
26186;DHT22;20067;48.764;9.176;2023-02-02T08:55:46;7.80;91.30
26186;DHT22;20067;48.764;9.176;2023-02-02T08:58:12;7.80;91.30
26186;DHT22;20067;48.764;9.176;2023-02-02T09:00:38;7.80;91.30
26186;DHT22;20067;48.764;9.176;2023-02-02T09:03:04;7.80;91.20
26186;DHT22;20067;48.764;9.176;2023-02-02T09:05:30;7.80;91.30
26186;DHT22;20067;48.764;9.176;2023-02-02T09:07:56;7.80;91.30
26186;DHT22;20067;48.764;9.176;2023-02-02T09:10:22;7.80;91.20
26186;DHT22;20067;48.764;9.176;2023-02-02T09:12:47;7.90;90.80
26186;DHT22;20067;48.764;9.176;2023-02-02T09:15:13;7.90;91.00
26186;DHT22;20067;48.764;9.176;2023-02-02T09:17:39;7.90;90.90
26186;DHT22;20067;48.764;9.176;2023-02-02T09:20:08;7.80;91.00
26186;DHT22;20067;48.764;9.176;2023-02-02T09:22:33;7.80;91.20
26186;DHT22;20067;48.764;9.176;2023-02-02T09:24:59;7.90;91.10
26186;DHT22;20067;48.764;9.176;2023-02-02T09:27:25;7.90;91.00
26186;DHT22;20067;48.764;9.176;2023-02-02T09:29:50;7.90;91.20
26186;DHT22;20067;48.764;9.176;2023-02-02T09:32:18;7.90;91.20
26186;DHT22;20067;48.764;9.176;2023-02-02T09:34:43;7.90;91.30
26186;DHT22;20067;48.764;9.176;2023-02-02T09:37:09;7.90;91.30
26186;DHT22;20067;48.764;9.176;2023-02-02T09:39:35;7.90;91.30
26186;DHT22;20067;48.764;9.176;2023-02-02T09:44:56;7.90;91.30
26186;DHT22;20067;48.764;9.176;2023-02-02T09:53:19;7.90;91.30
26186;DHT22;20067;48.764;9.176;2023-02-02T09:55:52;7.90;91.30
26186;DHT22;20067;48.764;9.176;2023-02-02T09:58:46;7.90;91.30
26186;DHT22;20067;48.764;9.176;2023-02-02T10:06:46;7.90;91.30
26186;DHT22;20067;48.764;9.176;2023-02-02T10:12:12;7.80;91.30
26186;DHT22;20067;48.764;9.176;2023-02-02T10:14:55;7.80;91.30
26186;DHT22;20067;48.764;9.176;2023-02-02T10:23:27;7.80;91.30
26186;DHT22;20067;48.764;9.176;2023-02-02T10:26:15;7.70;91.30
26186;DHT22;20067;48.764;9.176;2023-02-02T10:34:43;7.80;91.30
26186;DHT22;20067;48.764;9.176;2023-02-02T10:40:38;7.90;91.30
26186;DHT22;20067;48.764;9.176;2023-02-02T10:45:53;7.90;91.30
26186;DHT22;20067;48.764;9.176;2023-02-02T10:48:27;7.80;91.30
26186;DHT22;20067;48.764;9.176;2023-02-02T10:50:59;7.80;91.30
26186;DHT22;20067;48.764;9.176;2023-02-02T10:53:29;7.80;91.30
26186;DHT22;20067;48.764;9.176;2023-02-02T10:56:06;7.80;91.30
26186;DHT22;20067;48.764;9.176;2023-02-02T10:58:57;7.90;91.30
26186;DHT22;20067;48.764;9.176;2023-02-02T11:01:23;7.80;91.30
26186;DHT22;20067;48.764;9.176;2023-02-02T11:03:50;7.80;91.30
26186;DHT22;20067;48.764;9.176;2023-02-02T11:06:35;7.80;91.30
26186;DHT22;20067;48.764;9.176;2023-02-02T11:09:30;7.80;91.30
26186;DHT22;20067;48.764;9.176;2023-02-02T11:12:03;7.80;91.30
26186;DHT22;20067;48.764;9.176;2023-02-02T11:14:39;7.80;91.30
26186;DHT22;20067;48.764;9.176;2023-02-02T11:17:24;7.90;91.30
26186;DHT22;20067;48.764;9.176;2023-02-02T11:19:51;7.90;91.30
26186;DHT22;20067;48.764;9.176;2023-02-02T11:22:24;7.90;91.30
26186;DHT22;20067;48.764;9.176;2023-02-02T11:24:51;7.90;91.30
26186;DHT22;20067;48.764;9.176;2023-02-02T11:27:25;7.90;91.30
26186;DHT22;20067;48.764;9.176;2023-02-02T11:29:54;7.90;91.30
26186;DHT22;20067;48.764;9.176;2023-02-02T11:32:32;7.90;91.30
26186;DHT22;20067;48.764;9.176;2023-02-02T11:42:49;8.00;91.30
26186;DHT22;20067;48.764;9.176;2023-02-02T11:45:17;8.00;91.30
26186;DHT22;20067;48.764;9.176;2023-02-02T11:47:43;8.10;91.30
26186;DHT22;20067;48.764;9.176;2023-02-02T11:50:16;8.10;91.30
26186;DHT22;20067;48.764;9.176;2023-02-02T11:52:45;8.10;91.30
26186;DHT22;20067;48.764;9.176;2023-02-02T11:55:17;8.00;91.30
26186;DHT22;20067;48.764;9.176;2023-02-02T11:58:16;8.00;91.30
26186;DHT22;20067;48.764;9.176;2023-02-02T12:00:50;8.00;91.30
26186;DHT22;20067;48.764;9.176;2023-02-02T12:03:29;8.00;91.30
26186;DHT22;20067;48.764;9.176;2023-02-02T12:05:55;8.00;91.30
26186;DHT22;20067;48.764;9.176;2023-02-02T12:08:21;8.00;91.30
26186;DHT22;20067;48.764;9.176;2023-02-02T12:16:05;7.90;91.30
26186;DHT22;20067;48.764;9.176;2023-02-02T12:32:33;7.90;91.30
26186;DHT22;20067;48.764;9.176;2023-02-02T12:38:06;7.90;91.30
26186;DHT22;20067;48.764;9.176;2023-02-02T12:43:41;7.90;91.30
26186;DHT22;20067;48.764;9.176;2023-02-02T12:49:26;7.80;91.30
26186;DHT22;20067;48.764;9.176;2023-02-02T12:57:52;7.80;91.30
26186;DHT22;20067;48.764;9.176;2023-02-02T13:08:40;7.40;91.30
26186;DHT22;20067;48.764;9.176;2023-02-02T13:11:12;7.30;91.30
26186;DHT22;20067;48.764;9.176;2023-02-02T13:16:35;7.20;91.30
26186;DHT22;20067;48.764;9.176;2023-02-02T13:19:10;7.20;91.30
26186;DHT22;20067;48.764;9.176;2023-02-02T13:21:38;7.20;91.30
26186;DHT22;20067;48.764;9.176;2023-02-02T13:24:12;7.20;91.30
26186;DHT22;20067;48.764;9.176;2023-02-02T13:26:43;7.20;91.30
26186;DHT22;20067;48.764;9.176;2023-02-02T13:31:37;7.20;91.30
26186;DHT22;20067;48.764;9.176;2023-02-02T13:34:28;7.20;91.30
26186;DHT22;20067;48.764;9.176;2023-02-02T13:37:03;7.30;91.30
26186;DHT22;20067;48.764;9.176;2023-02-02T13:39:37;7.30;91.30
26186;DHT22;20067;48.764;9.176;2023-02-02T13:42:06;7.30;91.30
26186;DHT22;20067;48.764;9.176;2023-02-02T13:44:47;7.40;91.30
26186;DHT22;20067;48.764;9.176;2023-02-02T13:47:21;7.40;91.30
26186;DHT22;20067;48.764;9.176;2023-02-02T13:49:53;7.40;91.30
26186;DHT22;20067;48.764;9.176;2023-02-02T14:00:52;7.60;91.30
26186;DHT22;20067;48.764;9.176;2023-02-02T14:03:37;7.50;91.30
26186;DHT22;20067;48.764;9.176;2023-02-02T14:08:32;7.50;91.30
26186;DHT22;20067;48.764;9.176;2023-02-02T14:11:01;7.50;91.30
26186;DHT22;20067;48.764;9.176;2023-02-02T14:16:23;7.50;91.30
26186;DHT22;20067;48.764;9.176;2023-02-02T14:26:56;7.60;91.30
26186;DHT22;20067;48.764;9.176;2023-02-02T14:31:58;7.70;91.30
26186;DHT22;20067;48.764;9.176;2023-02-02T14:34:42;7.80;91.30
26186;DHT22;20067;48.764;9.176;2023-02-02T14:45:32;7.70;91.30
26186;DHT22;20067;48.764;9.176;2023-02-02T14:50:49;7.80;91.30
26186;DHT22;20067;48.764;9.176;2023-02-02T14:56:20;7.80;91.30
26186;DHT22;20067;48.764;9.176;2023-02-02T14:58:59;7.80;91.30
26186;DHT22;20067;48.764;9.176;2023-02-02T15:01:30;7.80;91.30
26186;DHT22;20067;48.764;9.176;2023-02-02T15:14:55;7.90;91.30
26186;DHT22;20067;48.764;9.176;2023-02-02T15:30:37;7.80;91.30
26186;DHT22;20067;48.764;9.176;2023-02-02T15:33:29;7.80;91.30
26186;DHT22;20067;48.764;9.176;2023-02-02T15:35:58;7.80;91.30
26186;DHT22;20067;48.764;9.176;2023-02-02T15:38:33;7.80;91.30
26186;DHT22;20067;48.764;9.176;2023-02-02T15:43:39;7.80;91.30
26186;DHT22;20067;48.764;9.176;2023-02-02T15:46:10;7.80;91.30
26186;DHT22;20067;48.764;9.176;2023-02-02T15:48:37;7.80;91.30
26186;DHT22;20067;48.764;9.176;2023-02-02T15:51:05;7.80;91.30
26186;DHT22;20067;48.764;9.176;2023-02-02T15:58:52;7.70;91.30
26186;DHT22;20067;48.764;9.176;2023-02-02T16:01:20;7.60;91.30
26186;DHT22;20067;48.764;9.176;2023-02-02T16:06:20;7.70;91.30
26186;DHT22;20067;48.764;9.176;2023-02-02T16:08:47;7.70;91.30
26186;DHT22;20067;48.764;9.176;2023-02-02T16:11:17;7.60;91.30
26186;DHT22;20067;48.764;9.176;2023-02-02T16:13:59;7.70;91.30
26186;DHT22;20067;48.764;9.176;2023-02-02T16:16:34;7.70;91.30
26186;DHT22;20067;48.764;9.176;2023-02-02T16:19:12;7.80;91.30
26186;DHT22;20067;48.764;9.176;2023-02-02T16:21:44;7.80;91.30
26186;DHT22;20067;48.764;9.176;2023-02-02T16:24:21;7.80;91.30
26186;DHT22;20067;48.764;9.176;2023-02-02T16:26:49;7.80;91.30
26186;DHT22;20067;48.764;9.176;2023-02-02T16:29:15;7.80;91.30
26186;DHT22;20067;48.764;9.176;2023-02-02T16:31:49;7.80;91.30
26186;DHT22;20067;48.764;9.176;2023-02-02T16:37:21;7.80;91.30
26186;DHT22;20067;48.764;9.176;2023-02-02T16:39:47;7.80;91.30
26186;DHT22;20067;48.764;9.176;2023-02-02T16:42:27;7.90;91.30
26186;DHT22;20067;48.764;9.176;2023-02-02T16:44:55;7.90;91.30
26186;DHT22;20067;48.764;9.176;2023-02-02T16:49:51;7.90;91.30
26186;DHT22;20067;48.764;9.176;2023-02-02T16:52:18;7.90;91.30
26186;DHT22;20067;48.764;9.176;2023-02-02T16:54:51;7.90;91.30
26186;DHT22;20067;48.764;9.176;2023-02-02T16:57:26;7.90;91.30
26186;DHT22;20067;48.764;9.176;2023-02-02T16:59:59;7.80;91.30
26186;DHT22;20067;48.764;9.176;2023-02-02T17:02:37;7.80;91.30
26186;DHT22;20067;48.764;9.176;2023-02-02T17:07:46;7.80;91.30
26186;DHT22;20067;48.764;9.176;2023-02-02T17:12:43;7.80;91.30
26186;DHT22;20067;48.764;9.176;2023-02-02T17:17:41;7.80;91.30
26186;DHT22;20067;48.764;9.176;2023-02-02T17:20:08;7.80;91.30
26186;DHT22;20067;48.764;9.176;2023-02-02T17:22:38;7.80;91.30
26186;DHT22;20067;48.764;9.176;2023-02-02T17:25:04;7.80;91.30
26186;DHT22;20067;48.764;9.176;2023-02-02T17:27:32;7.80;91.30
26186;DHT22;20067;48.764;9.176;2023-02-02T17:30:02;7.70;91.30
26186;DHT22;20067;48.764;9.176;2023-02-02T17:32:28;7.70;91.30
26186;DHT22;20067;48.764;9.176;2023-02-02T17:34:54;7.60;91.30
26186;DHT22;20067;48.764;9.176;2023-02-02T17:37:20;7.60;91.30
26186;DHT22;20067;48.764;9.176;2023-02-02T17:39:46;7.70;91.30
26186;DHT22;20067;48.764;9.176;2023-02-02T17:42:23;7.70;91.30
26186;DHT22;20067;48.764;9.176;2023-02-02T17:44:49;7.70;91.30
26186;DHT22;20067;48.764;9.176;2023-02-02T17:47:15;7.70;91.30
26186;DHT22;20067;48.764;9.176;2023-02-02T17:49:40;7.60;91.30
26186;DHT22;20067;48.764;9.176;2023-02-02T17:52:07;7.70;91.30
26186;DHT22;20067;48.764;9.176;2023-02-02T17:54:33;7.70;91.30
26186;DHT22;20067;48.764;9.176;2023-02-02T17:56:59;7.80;91.30
26186;DHT22;20067;48.764;9.176;2023-02-02T17:59:25;7.70;91.30
26186;DHT22;20067;48.764;9.176;2023-02-02T18:01:50;7.70;91.30
26186;DHT22;20067;48.764;9.176;2023-02-02T18:04:18;7.70;91.30
26186;DHT22;20067;48.764;9.176;2023-02-02T18:06:43;7.80;91.30
26186;DHT22;20067;48.764;9.176;2023-02-02T18:09:09;7.70;91.30
26186;DHT22;20067;48.764;9.176;2023-02-02T18:11:35;7.70;91.30
26186;DHT22;20067;48.764;9.176;2023-02-02T18:14:00;7.70;91.30
26186;DHT22;20067;48.764;9.176;2023-02-02T18:16:26;7.60;91.30
26186;DHT22;20067;48.764;9.176;2023-02-02T18:18:52;7.70;91.30
26186;DHT22;20067;48.764;9.176;2023-02-02T18:21:18;7.70;91.30
26186;DHT22;20067;48.764;9.176;2023-02-02T18:23:46;7.60;91.30
26186;DHT22;20067;48.764;9.176;2023-02-02T18:26:18;7.60;91.30
26186;DHT22;20067;48.764;9.176;2023-02-02T18:28:45;7.60;91.30
26186;DHT22;20067;48.764;9.176;2023-02-02T18:31:16;7.50;91.30
26186;DHT22;20067;48.764;9.176;2023-02-02T18:33:42;7.60;91.30
26186;DHT22;20067;48.764;9.176;2023-02-02T18:36:10;7.50;91.30
26186;DHT22;20067;48.764;9.176;2023-02-02T18:38:39;7.50;91.30
26186;DHT22;20067;48.764;9.176;2023-02-02T18:41:05;7.50;91.30
26186;DHT22;20067;48.764;9.176;2023-02-02T18:43:30;7.50;91.30
26186;DHT22;20067;48.764;9.176;2023-02-02T18:46:05;7.50;91.30
26186;DHT22;20067;48.764;9.176;2023-02-02T18:48:33;7.60;91.30
26186;DHT22;20067;48.764;9.176;2023-02-02T18:51:03;7.60;91.30
26186;DHT22;20067;48.764;9.176;2023-02-02T18:53:30;7.70;91.30
26186;DHT22;20067;48.764;9.176;2023-02-02T18:55:56;7.60;91.30
26186;DHT22;20067;48.764;9.176;2023-02-02T18:58:21;7.70;91.30
26186;DHT22;20067;48.764;9.176;2023-02-02T19:00:47;7.70;91.30
26186;DHT22;20067;48.764;9.176;2023-02-02T19:03:13;7.70;91.30
26186;DHT22;20067;48.764;9.176;2023-02-02T19:05:39;7.50;91.30
26186;DHT22;20067;48.764;9.176;2023-02-02T19:08:23;7.50;91.30
26186;DHT22;20067;48.764;9.176;2023-02-02T19:10:56;7.50;91.30
26186;DHT22;20067;48.764;9.176;2023-02-02T19:13:23;7.40;91.30